createdAt,value
2019-01-26T00:00:42.090Z,84.10
2019-01-26T00:03:09.709Z,84.10
2019-01-26T00:05:37.265Z,84.00
2019-01-26T00:08:04.889Z,84.10
2019-01-26T00:10:32.467Z,83.70
2019-01-26T00:12:59.788Z,83.60
2019-01-26T00:15:27.343Z,83.80
2019-01-26T00:17:54.822Z,84.10
2019-01-26T00:20:22.363Z,84.40
2019-01-26T00:22:49.873Z,83.80
2019-01-26T00:25:17.384Z,83.80
2019-01-26T00:27:45.898Z,83.70
2019-01-26T00:30:13.539Z,83.80
2019-01-26T00:32:41.011Z,83.90
2019-01-26T00:35:08.876Z,84.40
2019-01-26T00:37:36.376Z,85.20
2019-01-26T00:40:05.307Z,86.20
2019-01-26T00:42:32.718Z,87.10
2019-01-26T00:45:00.191Z,87.50
2019-01-26T00:47:27.840Z,88.10
2019-01-26T00:49:55.704Z,89.20
2019-01-26T00:52:23.273Z,89.70
2019-01-26T00:54:50.762Z,90.20
2019-01-26T00:57:18.279Z,90.70
2019-01-26T00:59:45.739Z,91.00
2019-01-26T01:02:13.348Z,91.40
2019-01-26T01:04:40.867Z,91.60
2019-01-26T01:07:09.442Z,91.40
2019-01-26T01:09:36.943Z,91.60
2019-01-26T01:12:04.410Z,91.40
2019-01-26T01:14:31.907Z,91.80
2019-01-26T01:16:59.357Z,91.70
2019-01-26T01:19:27.035Z,91.40
2019-01-26T01:21:54.711Z,91.40
2019-01-26T01:24:22.237Z,91.10
2019-01-26T01:26:49.734Z,90.50
2019-01-26T01:29:17.196Z,90.30
2019-01-26T01:31:44.999Z,90.50
2019-01-26T01:34:12.516Z,90.20
2019-01-26T01:36:39.995Z,90.00
2019-01-26T01:39:08.086Z,89.30
2019-01-26T01:41:36.771Z,88.50
2019-01-26T01:44:04.516Z,89.10
2019-01-26T01:46:31.943Z,89.10
2019-01-26T01:48:59.576Z,89.00
2019-01-26T01:51:27.143Z,88.70
2019-01-26T01:53:54.685Z,88.50
2019-01-26T01:56:22.157Z,88.50
2019-01-26T01:58:49.627Z,88.40
2019-01-26T02:01:17.160Z,88.60
2019-01-26T02:03:44.543Z,88.80
2019-01-26T02:06:11.909Z,88.90
2019-01-26T02:08:39.457Z,88.70
2019-01-26T02:11:06.800Z,89.30
2019-01-26T02:13:34.724Z,89.50
2019-01-26T02:16:02.173Z,89.40
2019-01-26T02:18:29.638Z,89.10
2019-01-26T02:20:57.226Z,89.40
2019-01-26T02:23:24.636Z,88.90
2019-01-26T02:25:52.013Z,89.30
2019-01-26T02:28:19.537Z,89.60
2019-01-26T02:30:47.051Z,89.80
2019-01-26T02:33:14.479Z,89.90
2019-01-26T02:35:41.943Z,90.00
2019-01-26T02:38:09.760Z,90.70
2019-01-26T02:40:38.368Z,90.80
2019-01-26T02:43:05.936Z,91.20
2019-01-26T02:45:33.390Z,91.50
2019-01-26T02:48:00.810Z,91.40
2019-01-26T02:50:28.233Z,91.50
2019-01-26T02:52:56.630Z,91.50
2019-01-26T02:55:24.200Z,91.90
2019-01-26T02:57:51.712Z,92.00
2019-01-26T03:00:21.451Z,91.80
2019-01-26T03:02:48.946Z,91.80
2019-01-26T03:05:16.641Z,91.40
2019-01-26T03:07:44.529Z,91.50
2019-01-26T03:10:14.024Z,91.30
2019-01-26T03:12:41.384Z,91.20
2019-01-26T03:15:11.001Z,90.70
2019-01-26T03:17:38.463Z,91.00
2019-01-26T03:20:08.153Z,90.90
2019-01-26T03:22:35.826Z,90.40
2019-01-26T03:25:04.391Z,91.20
2019-01-26T03:27:31.903Z,90.90
2019-01-26T03:29:59.436Z,91.00
2019-01-26T03:32:27.092Z,90.80
2019-01-26T03:34:54.539Z,90.40
2019-01-26T03:37:21.916Z,90.60
2019-01-26T03:39:49.446Z,90.40
2019-01-26T03:42:16.802Z,90.70
2019-01-26T03:44:44.239Z,90.60
2019-01-26T03:47:13.711Z,91.00
2019-01-26T03:49:41.084Z,91.00
2019-01-26T03:52:08.519Z,91.10
2019-01-26T03:54:35.991Z,91.10
2019-01-26T03:57:03.506Z,91.20
2019-01-26T03:59:30.988Z,91.00
2019-01-26T04:01:58.555Z,91.30
2019-01-26T04:04:27.121Z,91.30
2019-01-26T04:06:55.720Z,91.40
2019-01-26T04:09:23.186Z,91.60
2019-01-26T04:11:50.653Z,91.70
2019-01-26T04:14:18.969Z,91.70
2019-01-26T04:16:46.558Z,91.90
2019-01-26T04:19:14.069Z,91.80
2019-01-26T04:21:41.383Z,92.10
2019-01-26T04:24:08.961Z,92.30
2019-01-26T04:26:36.838Z,92.70
2019-01-26T04:29:04.632Z,92.70
2019-01-26T04:31:32.441Z,92.40
2019-01-26T04:33:59.923Z,92.80
2019-01-26T04:36:27.244Z,92.80
2019-01-26T04:38:54.727Z,92.40
2019-01-26T04:41:22.194Z,92.70
2019-01-26T04:43:49.659Z,93.00
2019-01-26T04:46:17.461Z,92.80
2019-01-26T04:48:45.040Z,92.90
2019-01-26T04:51:13.650Z,92.80
2019-01-26T04:53:41.255Z,92.80
2019-01-26T04:56:08.729Z,92.70
2019-01-26T04:58:37.358Z,92.70
2019-01-26T05:01:04.799Z,92.80
2019-01-26T05:03:32.263Z,92.90
2019-01-26T05:05:59.720Z,93.00
2019-01-26T05:08:27.191Z,92.90
2019-01-26T05:10:54.894Z,93.10
2019-01-26T05:13:22.343Z,93.20
2019-01-26T05:15:49.827Z,93.10
2019-01-26T05:18:17.164Z,93.30
2019-01-26T05:20:44.607Z,93.60
2019-01-26T05:23:12.086Z,93.70
2019-01-26T05:25:39.423Z,93.70
2019-01-26T05:28:06.943Z,93.80
2019-01-26T05:30:34.469Z,93.90
2019-01-26T05:33:01.961Z,94.20
2019-01-26T05:35:29.292Z,94.20
2019-01-26T05:37:56.622Z,94.20
2019-01-26T05:40:24.194Z,94.30
2019-01-26T05:42:51.732Z,94.50
2019-01-26T05:45:21.861Z,94.60
2019-01-26T05:47:49.755Z,94.50
2019-01-26T05:50:19.017Z,94.30
2019-01-26T05:52:46.500Z,94.60
2019-01-26T05:55:14.099Z,94.80
2019-01-26T05:57:41.594Z,94.80
2019-01-26T06:00:12.414Z,94.80
2019-01-26T06:02:40.169Z,95.00
2019-01-26T06:05:07.725Z,94.90
2019-01-26T06:07:35.195Z,95.10
2019-01-26T06:10:03.777Z,94.90
2019-01-26T06:12:31.237Z,94.80
2019-01-26T06:14:59.020Z,94.70
2019-01-26T06:17:26.460Z,94.70
2019-01-26T06:19:53.927Z,94.80
2019-01-26T06:22:21.406Z,94.80
2019-01-26T06:24:48.846Z,94.80
2019-01-26T06:27:16.319Z,94.70
2019-01-26T06:29:43.886Z,94.90
2019-01-26T06:32:11.731Z,94.80
2019-01-26T06:34:39.202Z,94.90
2019-01-26T06:37:06.652Z,94.70
2019-01-26T06:39:34.142Z,94.70
2019-01-26T06:42:01.586Z,94.80
2019-01-26T06:44:29.101Z,94.60
2019-01-26T06:46:56.550Z,94.50
2019-01-26T06:49:24.220Z,94.60
2019-01-26T06:51:54.489Z,94.70
2019-01-26T06:54:22.000Z,94.60
2019-01-26T06:56:49.466Z,94.60
2019-01-26T06:59:17.038Z,94.60
2019-01-26T07:01:44.563Z,94.50
2019-01-26T07:04:15.333Z,94.50
2019-01-26T07:07:02.646Z,94.50
2019-01-26T07:09:30.147Z,94.50
2019-01-26T07:11:57.654Z,94.30
2019-01-26T07:14:25.184Z,94.30
2019-01-26T07:16:52.667Z,94.30
2019-01-26T07:19:20.371Z,94.50
2019-01-26T07:21:48.849Z,94.50
2019-01-26T07:24:16.408Z,94.60
2019-01-26T07:26:43.834Z,94.60
2019-01-26T07:29:11.309Z,94.60
2019-01-26T07:31:40.023Z,94.60
2019-01-26T07:34:07.404Z,94.60
2019-01-26T07:36:34.766Z,94.60
2019-01-26T07:39:04.617Z,94.60
2019-01-26T07:41:32.674Z,94.60
2019-01-26T07:44:00.135Z,94.80
2019-01-26T07:46:27.919Z,94.80
2019-01-26T07:48:55.441Z,94.90
2019-01-26T07:51:22.916Z,95.30
2019-01-26T07:53:50.470Z,95.60
2019-01-26T07:56:17.946Z,95.60
2019-01-26T07:58:45.430Z,95.70
2019-01-26T08:01:12.790Z,95.60
2019-01-26T08:03:42.133Z,96.00
2019-01-26T08:06:09.615Z,96.40
2019-01-26T08:08:37.135Z,96.50
2019-01-26T08:11:04.672Z,96.60
2019-01-26T08:13:32.330Z,96.40
2019-01-26T08:15:59.728Z,96.40
2019-01-26T08:18:27.380Z,96.30
2019-01-26T08:20:54.808Z,96.30
2019-01-26T08:23:22.167Z,96.30
2019-01-26T08:25:49.641Z,96.30
2019-01-26T08:28:17.142Z,96.30
2019-01-26T08:30:44.618Z,96.10
2019-01-26T08:33:13.127Z,96.10
2019-01-26T08:35:40.612Z,96.00
2019-01-26T08:38:07.967Z,95.80
2019-01-26T08:40:35.463Z,95.70
2019-01-26T08:43:03.399Z,95.20
2019-01-26T08:45:30.891Z,94.60
2019-01-26T08:48:00.921Z,94.50
2019-01-26T08:50:28.276Z,94.30
2019-01-26T08:52:55.731Z,94.30
2019-01-26T08:55:23.327Z,94.10
2019-01-26T08:57:50.922Z,94.10
2019-01-26T09:00:20.220Z,94.20
2019-01-26T09:03:08.574Z,94.00
2019-01-26T09:05:49.988Z,94.10
2019-01-26T09:08:17.462Z,94.20
2019-01-26T09:10:44.929Z,94.30
2019-01-26T09:13:12.447Z,94.30
2019-01-26T09:15:39.952Z,94.30
2019-01-26T09:18:07.515Z,94.20
2019-01-26T09:20:34.991Z,94.20
2019-01-26T09:23:02.540Z,94.30
2019-01-26T09:25:29.999Z,94.30
2019-01-26T09:27:57.587Z,94.30
2019-01-26T09:30:25.142Z,94.40
2019-01-26T09:32:52.632Z,94.40
2019-01-26T09:35:21.234Z,94.30
2019-01-26T09:37:48.597Z,94.30
2019-01-26T09:40:16.286Z,94.20
2019-01-26T09:42:43.870Z,94.30
2019-01-26T09:45:12.758Z,94.20
2019-01-26T09:47:40.211Z,94.20
2019-01-26T09:50:08.310Z,94.00
2019-01-26T09:52:35.660Z,93.80
2019-01-26T09:55:04.767Z,93.60
2019-01-26T09:57:32.284Z,93.50
2019-01-26T09:59:59.740Z,93.40
2019-01-26T10:02:27.237Z,93.40
2019-01-26T10:04:56.132Z,93.30
2019-01-26T10:07:23.605Z,93.20
2019-01-26T10:09:51.082Z,93.10
2019-01-26T10:12:18.559Z,93.20
2019-01-26T10:14:46.046Z,93.00
2019-01-26T10:17:13.551Z,92.80
2019-01-26T10:19:41.019Z,92.70
2019-01-26T10:22:08.492Z,92.70
2019-01-26T10:24:36.100Z,92.60
2019-01-26T10:27:03.727Z,92.60
2019-01-26T10:29:31.178Z,92.60
2019-01-26T10:31:58.657Z,92.50
2019-01-26T10:34:26.172Z,92.20
2019-01-26T10:36:57.245Z,92.40
2019-01-26T10:39:24.766Z,92.40
2019-01-26T10:42:11.723Z,92.30
2019-01-26T10:44:39.354Z,92.00
2019-01-26T10:47:08.713Z,91.80
2019-01-26T10:49:36.424Z,91.70
2019-01-26T10:52:04.227Z,92.00
2019-01-26T10:54:31.738Z,92.00
2019-01-26T10:56:59.176Z,91.90
2019-01-26T10:59:26.646Z,91.90
2019-01-26T11:01:54.161Z,91.80
2019-01-26T11:04:21.630Z,91.70
2019-01-26T11:06:49.152Z,91.60
2019-01-26T11:09:16.487Z,91.70
2019-01-26T11:11:43.969Z,91.60
2019-01-26T11:14:11.588Z,91.80
2019-01-26T11:16:39.070Z,91.80
2019-01-26T11:19:08.045Z,91.90
2019-01-26T11:21:36.114Z,91.70
2019-01-26T11:24:03.705Z,91.60
2019-01-26T11:26:31.171Z,91.80
2019-01-26T11:28:58.524Z,91.80
2019-01-26T11:31:25.990Z,91.70
2019-01-26T11:33:53.444Z,91.80
2019-01-26T11:36:20.977Z,91.90
2019-01-26T11:38:48.756Z,91.90
2019-01-26T11:41:16.427Z,91.90
2019-01-26T11:43:44.032Z,91.60
2019-01-26T11:46:17.681Z,91.90
2019-01-26T11:48:47.225Z,91.80
2019-01-26T11:51:32.041Z,92.00
2019-01-26T11:53:59.571Z,92.20
2019-01-26T11:56:40.690Z,92.10
2019-01-26T11:59:08.305Z,92.00
2019-01-26T12:02:11.550Z,92.00
2019-01-26T12:05:04.891Z,91.90
2019-01-26T12:07:35.032Z,91.90
2019-01-26T12:10:02.651Z,91.90
2019-01-26T12:12:30.307Z,92.00
2019-01-26T12:14:57.791Z,91.90
2019-01-26T12:17:26.456Z,91.80
2019-01-26T12:19:53.811Z,92.00
2019-01-26T12:22:21.383Z,91.80
2019-01-26T12:24:48.944Z,91.80
2019-01-26T12:27:16.417Z,91.80
2019-01-26T12:29:46.115Z,91.90
2019-01-26T12:32:13.588Z,91.50
2019-01-26T12:34:41.043Z,91.90
2019-01-26T12:37:08.534Z,91.70
2019-01-26T12:39:36.001Z,91.60
2019-01-26T12:42:03.519Z,92.00
2019-01-26T12:44:31.008Z,92.10
2019-01-26T12:46:58.506Z,92.00
2019-01-26T12:49:29.679Z,91.80
2019-01-26T12:51:55.403Z,91.90
2019-01-26T12:54:22.883Z,91.40
2019-01-26T12:56:50.402Z,91.30
2019-01-26T12:59:17.791Z,91.40
2019-01-26T13:01:45.684Z,91.50
2019-01-26T13:04:14.942Z,91.20
2019-01-26T13:06:42.420Z,91.30
2019-01-26T13:09:10.277Z,91.40
2019-01-26T13:11:41.137Z,91.30
2019-01-26T13:14:09.627Z,91.50
2019-01-26T13:16:37.123Z,91.50
2019-01-26T13:19:04.652Z,91.50
2019-01-26T13:21:32.012Z,91.40
2019-01-26T13:23:59.431Z,91.70
2019-01-26T13:26:26.934Z,91.10
2019-01-26T13:28:54.440Z,91.40
2019-01-26T13:31:21.821Z,91.40
2019-01-26T13:33:49.285Z,91.50
2019-01-26T13:36:16.807Z,91.40
2019-01-26T13:38:44.305Z,91.40
2019-01-26T13:41:11.811Z,91.20
2019-01-26T13:43:39.288Z,91.20
2019-01-26T13:46:06.804Z,91.10
2019-01-26T13:48:34.255Z,91.10
2019-01-26T13:51:01.726Z,91.80
2019-01-26T13:53:29.200Z,92.20
2019-01-26T13:55:56.684Z,92.40
2019-01-26T13:58:24.179Z,93.00
2019-01-26T14:00:51.686Z,93.00
2019-01-26T14:03:19.411Z,93.10
2019-01-26T14:05:46.931Z,93.10
2019-01-26T14:08:14.392Z,92.90
2019-01-26T14:10:41.712Z,93.00
2019-01-26T14:13:09.089Z,93.00
2019-01-26T14:15:37.840Z,93.20
2019-01-26T14:18:05.534Z,93.40
2019-01-26T14:20:33.039Z,93.60
2019-01-26T14:23:00.611Z,93.70
2019-01-26T14:25:28.493Z,93.80
2019-01-26T14:27:55.975Z,93.80
2019-01-26T14:30:31.756Z,94.10
2019-01-26T14:32:59.276Z,94.20
2019-01-26T14:35:26.727Z,94.40
2019-01-26T14:37:54.230Z,94.40
2019-01-26T14:40:21.679Z,94.50
2019-01-26T14:42:54.261Z,94.50
2019-01-26T14:45:19.037Z,94.60
2019-01-26T14:47:47.501Z,94.80
2019-01-26T14:50:15.006Z,94.60
2019-01-26T14:52:42.481Z,94.60
2019-01-26T14:55:12.948Z,94.50
2019-01-26T14:57:40.443Z,94.40
2019-01-26T15:00:12.994Z,94.70
2019-01-26T15:02:40.531Z,94.60
2019-01-26T15:05:08.016Z,94.60
2019-01-26T15:07:35.482Z,94.80
2019-01-26T15:10:03.689Z,94.60
2019-01-26T15:12:31.098Z,94.50
2019-01-26T15:14:58.586Z,94.60
2019-01-26T15:17:25.973Z,94.40
2019-01-26T15:19:53.486Z,94.40
2019-01-26T15:22:22.626Z,94.20
2019-01-26T15:24:50.126Z,94.20
2019-01-26T15:27:17.657Z,94.10
2019-01-26T15:29:45.094Z,94.10
2019-01-26T15:32:12.931Z,94.20
2019-01-26T15:34:40.401Z,94.20
2019-01-26T15:37:07.838Z,94.20
2019-01-26T15:39:35.594Z,94.20
2019-01-26T15:42:03.104Z,94.20
2019-01-26T15:44:30.648Z,94.30
2019-01-26T15:46:58.109Z,94.20
2019-01-26T15:49:25.842Z,94.10
2019-01-26T15:51:53.393Z,94.00
2019-01-26T15:54:20.882Z,94.10
2019-01-26T15:56:48.337Z,94.10
2019-01-26T15:59:15.856Z,94.10
2019-01-26T16:01:43.958Z,94.10
2019-01-26T16:04:11.632Z,94.20
2019-01-26T16:06:39.102Z,94.10
2019-01-26T16:09:07.976Z,94.10
2019-01-26T16:11:35.836Z,94.00
2019-01-26T16:14:03.751Z,94.10
2019-01-26T16:16:31.205Z,94.10
2019-01-26T16:18:58.561Z,94.10
2019-01-26T16:21:26.087Z,94.10
2019-01-26T16:23:53.562Z,94.00
2019-01-26T16:26:21.034Z,93.90
2019-01-26T16:28:48.384Z,93.90
2019-01-26T16:31:15.880Z,93.90
2019-01-26T16:33:43.370Z,93.90
2019-01-26T16:36:10.818Z,93.80
2019-01-26T16:38:38.183Z,93.90
2019-01-26T16:41:05.643Z,93.80
2019-01-26T16:43:33.100Z,93.80
2019-01-26T16:46:00.602Z,93.80
2019-01-26T16:48:29.043Z,93.90
2019-01-26T16:50:56.543Z,93.90
2019-01-26T16:53:24.041Z,94.00
2019-01-26T16:55:51.547Z,94.00
2019-01-26T16:58:19.047Z,94.20
2019-01-26T17:00:48.779Z,94.30
2019-01-26T17:03:16.270Z,94.40
2019-01-26T17:05:43.729Z,94.50
2019-01-26T17:08:11.461Z,94.60
2019-01-26T17:10:39.083Z,94.60
2019-01-26T17:13:07.624Z,94.70
2019-01-26T17:15:35.222Z,94.70
2019-01-26T17:18:03.096Z,94.60
2019-01-26T17:20:35.066Z,94.60
2019-01-26T17:23:02.983Z,94.50
2019-01-26T17:25:30.473Z,94.50
2019-01-26T17:27:58.002Z,94.50
2019-01-26T17:30:31.042Z,94.50
2019-01-26T17:32:59.204Z,94.50
2019-01-26T17:35:26.539Z,94.50
2019-01-26T17:37:54.057Z,94.50
2019-01-26T17:40:23.043Z,94.50
2019-01-26T17:42:52.145Z,94.50
2019-01-26T17:45:20.263Z,94.50
2019-01-26T17:47:48.073Z,94.60
2019-01-26T17:50:18.171Z,94.50
2019-01-26T17:52:46.751Z,94.70
2019-01-26T17:55:14.884Z,94.70
2019-01-26T17:57:42.472Z,95.00
2019-01-26T18:00:42.933Z,95.00
2019-01-26T18:03:10.565Z,95.10
2019-01-26T18:05:39.324Z,95.30
2019-01-26T18:08:06.824Z,95.30
2019-01-26T18:10:34.220Z,95.30
2019-01-26T18:13:01.915Z,95.40
2019-01-26T18:15:29.399Z,95.50
2019-01-26T18:17:56.841Z,95.60
2019-01-26T18:20:26.746Z,95.60
2019-01-26T18:22:54.138Z,95.70
2019-01-26T18:25:23.546Z,95.60
2019-01-26T18:27:50.997Z,95.50
2019-01-26T18:30:21.152Z,95.50
2019-01-26T18:32:48.839Z,95.50
2019-01-26T18:35:16.450Z,95.40
2019-01-26T18:37:44.264Z,95.30
2019-01-26T18:40:14.908Z,95.40
2019-01-26T18:42:42.404Z,95.50
2019-01-26T18:45:11.491Z,95.50
2019-01-26T18:47:38.946Z,95.40
2019-01-26T18:50:10.080Z,95.40
2019-01-26T18:52:37.551Z,95.30
2019-01-26T18:55:05.410Z,95.20
2019-01-26T18:57:34.856Z,95.30
2019-01-26T19:00:04.268Z,95.20
2019-01-26T19:02:32.208Z,95.20
2019-01-26T19:05:03.682Z,95.20
2019-01-26T19:07:31.354Z,95.10
2019-01-26T19:09:59.050Z,95.20
2019-01-26T19:12:26.619Z,95.20
2019-01-26T19:14:54.187Z,95.30
2019-01-26T19:17:22.792Z,95.40
2019-01-26T19:19:50.652Z,95.60
2019-01-26T19:22:18.027Z,95.40
2019-01-26T19:24:45.729Z,95.40
2019-01-26T19:27:13.664Z,95.30
2019-01-26T19:29:41.260Z,95.30
2019-01-26T19:32:08.814Z,95.30
2019-01-26T19:34:36.510Z,95.20
2019-01-26T19:37:09.363Z,95.10
2019-01-26T19:39:35.192Z,95.00
2019-01-26T19:42:03.436Z,95.00
2019-01-26T19:44:30.815Z,95.00
2019-01-26T19:46:58.289Z,95.10
2019-01-26T19:49:26.199Z,95.10
2019-01-26T19:51:53.846Z,95.10
2019-01-26T19:54:21.390Z,95.00
2019-01-26T19:56:48.966Z,94.90
2019-01-26T19:59:16.963Z,94.90
2019-01-26T20:01:44.275Z,95.00
2019-01-26T20:04:11.803Z,94.90
2019-01-26T20:06:39.364Z,94.90
2019-01-26T20:09:09.475Z,94.90
2019-01-26T20:11:37.499Z,94.90
2019-01-26T20:14:04.984Z,94.80
2019-01-26T20:16:36.411Z,94.80
2019-01-26T20:19:01.983Z,94.70
2019-01-26T20:21:29.600Z,94.90
2019-01-26T20:23:57.215Z,94.90
2019-01-26T20:26:24.725Z,94.80
2019-01-26T20:28:52.201Z,94.70
2019-01-26T20:31:21.036Z,94.50
2019-01-26T20:33:49.011Z,94.50
2019-01-26T20:36:16.342Z,94.60
2019-01-26T20:38:43.987Z,94.60
2019-01-26T20:41:11.630Z,94.90
2019-01-26T20:43:40.524Z,94.80
2019-01-26T20:46:07.952Z,94.90
2019-01-26T20:48:35.487Z,94.90
2019-01-26T20:51:03.486Z,95.00
2019-01-26T20:53:30.947Z,95.00
2019-01-26T20:55:58.679Z,95.00
2019-01-26T20:58:26.210Z,95.10
2019-01-26T21:00:54.453Z,95.10
2019-01-26T21:03:21.948Z,95.10
2019-01-26T21:05:49.293Z,95.10
2019-01-26T21:08:16.804Z,95.10
2019-01-26T21:10:44.388Z,95.10
2019-01-26T21:13:16.202Z,95.10
2019-01-26T21:15:41.196Z,95.30
2019-01-26T21:18:09.011Z,95.20
2019-01-26T21:20:36.672Z,95.30
2019-01-26T21:23:04.675Z,95.30
2019-01-26T21:25:32.432Z,95.20
2019-01-26T21:27:59.919Z,95.20
2019-01-26T21:30:27.832Z,95.20
2019-01-26T21:32:56.414Z,95.10
2019-01-26T21:35:25.389Z,95.00
2019-01-26T21:37:52.826Z,95.00
2019-01-26T21:40:22.187Z,95.10
2019-01-26T21:42:50.484Z,95.10
2019-01-26T21:45:18.387Z,95.10
2019-01-26T21:47:45.859Z,95.00
2019-01-26T21:50:15.942Z,94.80
2019-01-26T21:52:45.095Z,94.90
2019-01-26T21:55:12.458Z,94.90
2019-01-26T21:57:39.916Z,94.90
2019-01-26T22:00:14.042Z,94.90
2019-01-26T22:02:41.609Z,94.70
2019-01-26T22:05:09.503Z,94.80
2019-01-26T22:07:38.103Z,94.70
2019-01-26T22:10:07.255Z,94.70
2019-01-26T22:12:34.791Z,94.60
2019-01-26T22:15:02.278Z,94.50
2019-01-26T22:17:33.282Z,94.40
2019-01-26T22:20:00.782Z,94.40
2019-01-26T22:22:28.252Z,94.10
2019-01-26T22:24:56.005Z,94.10
2019-01-26T22:27:23.535Z,93.90
2019-01-26T22:29:51.324Z,93.70
2019-01-26T22:32:19.165Z,93.70
2019-01-26T22:34:46.705Z,93.60
2019-01-26T22:37:14.339Z,93.50
2019-01-26T22:39:41.753Z,93.40
2019-01-26T22:42:09.751Z,93.30
2019-01-26T22:44:37.076Z,93.30
2019-01-26T22:47:04.904Z,93.30
2019-01-26T22:49:32.343Z,93.30
2019-01-26T22:51:59.839Z,93.20
2019-01-26T22:54:27.701Z,93.20
2019-01-26T22:56:55.244Z,93.10
2019-01-26T22:59:22.823Z,93.10
2019-01-26T23:01:50.323Z,93.00
2019-01-26T23:05:14.538Z,92.90
2019-01-26T23:07:52.157Z,92.80
2019-01-26T23:11:00.561Z,92.70
2019-01-26T23:13:50.672Z,92.70
2019-01-26T23:16:57.039Z,92.70
2019-01-26T23:19:54.506Z,92.70
2019-01-26T23:22:47.823Z,92.60
2019-01-26T23:26:11.279Z,92.50
2019-01-26T23:29:18.874Z,92.40
2019-01-26T23:31:46.351Z,92.40
2019-01-26T23:34:13.824Z,92.20
2019-01-26T23:36:41.174Z,92.40
2019-01-26T23:39:09.676Z,92.20
2019-01-26T23:41:37.177Z,92.20
2019-01-26T23:44:04.893Z,92.20
2019-01-26T23:46:32.353Z,92.10
2019-01-26T23:48:59.854Z,92.20
2019-01-26T23:51:27.360Z,92.40
2019-01-26T23:53:54.842Z,92.40
2019-01-26T23:56:22.450Z,92.40
2019-01-26T23:58:50.006Z,92.50
